sensor_id;sensor_type;location;lat;lon;timestamp;P1;durP1;ratioP1;P2;durP2;ratioP2
32810;SDS011;65470;47.324;8.548;2023-04-30T00:01:38;8.63;;;7.00;;
32810;SDS011;65470;47.324;8.548;2023-04-30T00:04:03;8.68;;;7.45;;
32810;SDS011;65470;47.324;8.548;2023-04-30T00:06:29;9.82;;;7.82;;
32810;SDS011;65470;47.324;8.548;2023-04-30T00:08:55;10.85;;;7.75;;
32810;SDS011;65470;47.324;8.548;2023-04-30T00:11:21;9.05;;;6.80;;
32810;SDS011;65470;47.324;8.548;2023-04-30T00:13:46;7.78;;;6.97;;
32810;SDS011;65470;47.324;8.548;2023-04-30T00:16:12;8.88;;;7.57;;
32810;SDS011;65470;47.324;8.548;2023-04-30T00:18:37;8.15;;;7.35;;
32810;SDS011;65470;47.324;8.548;2023-04-30T00:21:03;9.32;;;7.57;;
32810;SDS011;65470;47.324;8.548;2023-04-30T00:23:29;8.05;;;7.25;;
32810;SDS011;65470;47.324;8.548;2023-04-30T00:25:54;8.82;;;8.02;;
32810;SDS011;65470;47.324;8.548;2023-04-30T00:28:20;8.68;;;7.88;;
32810;SDS011;65470;47.324;8.548;2023-04-30T00:30:46;8.65;;;7.75;;
32810;SDS011;65470;47.324;8.548;2023-04-30T00:33:11;9.70;;;8.52;;
32810;SDS011;65470;47.324;8.548;2023-04-30T00:35:37;10.25;;;8.35;;
32810;SDS011;65470;47.324;8.548;2023-04-30T00:38:03;10.35;;;9.15;;
32810;SDS011;65470;47.324;8.548;2023-04-30T00:40:28;8.90;;;8.07;;
32810;SDS011;65470;47.324;8.548;2023-04-30T00:42:54;10.30;;;8.88;;
32810;SDS011;65470;47.324;8.548;2023-04-30T00:45:20;9.88;;;8.88;;
32810;SDS011;65470;47.324;8.548;2023-04-30T00:47:47;9.85;;;8.80;;
32810;SDS011;65470;47.324;8.548;2023-04-30T00:50:13;12.20;;;8.88;;
32810;SDS011;65470;47.324;8.548;2023-04-30T00:52:43;10.48;;;8.68;;
32810;SDS011;65470;47.324;8.548;2023-04-30T00:55:10;12.23;;;9.05;;
32810;SDS011;65470;47.324;8.548;2023-04-30T00:57:36;9.23;;;8.20;;
32810;SDS011;65470;47.324;8.548;2023-04-30T01:00:03;9.68;;;8.55;;
32810;SDS011;65470;47.324;8.548;2023-04-30T01:02:30;11.55;;;8.07;;
32810;SDS011;65470;47.324;8.548;2023-04-30T01:04:56;10.90;;;9.25;;
32810;SDS011;65470;47.324;8.548;2023-04-30T01:07:23;9.90;;;9.00;;
32810;SDS011;65470;47.324;8.548;2023-04-30T01:09:51;10.68;;;8.80;;
32810;SDS011;65470;47.324;8.548;2023-04-30T01:14:52;9.65;;;8.68;;
32810;SDS011;65470;47.324;8.548;2023-04-30T01:20:28;10.07;;;9.07;;
32810;SDS011;65470;47.324;8.548;2023-04-30T01:23:06;10.23;;;9.23;;
32810;SDS011;65470;47.324;8.548;2023-04-30T01:28:28;11.82;;;9.95;;
32810;SDS011;65470;47.324;8.548;2023-04-30T01:30:53;9.98;;;8.70;;
32810;SDS011;65470;47.324;8.548;2023-04-30T01:33:19;9.65;;;8.75;;
32810;SDS011;65470;47.324;8.548;2023-04-30T01:47:03;9.88;;;8.90;;
32810;SDS011;65470;47.324;8.548;2023-04-30T01:52:39;12.05;;;9.93;;
32810;SDS011;65470;47.324;8.548;2023-04-30T01:55:13;11.15;;;10.05;;
32810;SDS011;65470;47.324;8.548;2023-04-30T01:57:55;10.50;;;9.43;;
32810;SDS011;65470;47.324;8.548;2023-04-30T02:03:45;13.07;;;10.07;;
32810;SDS011;65470;47.324;8.548;2023-04-30T02:06:10;11.10;;;9.77;;
32810;SDS011;65470;47.324;8.548;2023-04-30T02:08:36;10.18;;;9.18;;
32810;SDS011;65470;47.324;8.548;2023-04-30T02:11:02;12.50;;;9.70;;
32810;SDS011;65470;47.324;8.548;2023-04-30T02:13:28;10.90;;;9.35;;
32810;SDS011;65470;47.324;8.548;2023-04-30T02:15:54;12.07;;;9.32;;
32810;SDS011;65470;47.324;8.548;2023-04-30T02:18:20;11.63;;;9.63;;
32810;SDS011;65470;47.324;8.548;2023-04-30T02:20:45;11.95;;;9.25;;
32810;SDS011;65470;47.324;8.548;2023-04-30T02:23:11;10.55;;;9.40;;
32810;SDS011;65470;47.324;8.548;2023-04-30T02:25:36;9.95;;;8.90;;
32810;SDS011;65470;47.324;8.548;2023-04-30T02:28:03;12.13;;;10.05;;
32810;SDS011;65470;47.324;8.548;2023-04-30T02:30:28;13.57;;;9.60;;
32810;SDS011;65470;47.324;8.548;2023-04-30T02:32:54;12.30;;;9.55;;
32810;SDS011;65470;47.324;8.548;2023-04-30T02:35:20;11.35;;;10.15;;
32810;SDS011;65470;47.324;8.548;2023-04-30T02:37:45;10.70;;;9.60;;
32810;SDS011;65470;47.324;8.548;2023-04-30T02:40:11;11.32;;;10.02;;
32810;SDS011;65470;47.324;8.548;2023-04-30T02:42:36;11.07;;;9.88;;
32810;SDS011;65470;47.324;8.548;2023-04-30T02:45:02;11.45;;;9.00;;
32810;SDS011;65470;47.324;8.548;2023-04-30T02:47:28;12.80;;;10.77;;
32810;SDS011;65470;47.324;8.548;2023-04-30T02:49:54;10.23;;;9.23;;
32810;SDS011;65470;47.324;8.548;2023-04-30T02:52:20;12.82;;;9.13;;
32810;SDS011;65470;47.324;8.548;2023-04-30T02:54:45;10.50;;;8.88;;
32810;SDS011;65470;47.324;8.548;2023-04-30T02:57:11;14.35;;;10.38;;
32810;SDS011;65470;47.324;8.548;2023-04-30T02:59:36;11.77;;;9.70;;
32810;SDS011;65470;47.324;8.548;2023-04-30T03:02:02;13.73;;;10.02;;
32810;SDS011;65470;47.324;8.548;2023-04-30T03:04:28;9.73;;;8.48;;
32810;SDS011;65470;47.324;8.548;2023-04-30T03:06:54;10.68;;;9.05;;
32810;SDS011;65470;47.324;8.548;2023-04-30T03:09:19;9.98;;;9.02;;
32810;SDS011;65470;47.324;8.548;2023-04-30T03:11:45;13.18;;;9.32;;
32810;SDS011;65470;47.324;8.548;2023-04-30T03:14:11;10.13;;;9.13;;
32810;SDS011;65470;47.324;8.548;2023-04-30T03:16:36;12.82;;;10.10;;
32810;SDS011;65470;47.324;8.548;2023-04-30T03:19:02;10.57;;;9.43;;
32810;SDS011;65470;47.324;8.548;2023-04-30T03:21:27;13.13;;;9.68;;
32810;SDS011;65470;47.324;8.548;2023-04-30T03:23:53;12.07;;;9.13;;
32810;SDS011;65470;47.324;8.548;2023-04-30T03:26:19;11.18;;;10.05;;
32810;SDS011;65470;47.324;8.548;2023-04-30T03:28:45;10.77;;;9.68;;
32810;SDS011;65470;47.324;8.548;2023-04-30T03:31:10;11.40;;;9.25;;
32810;SDS011;65470;47.324;8.548;2023-04-30T03:33:36;12.70;;;10.50;;
32810;SDS011;65470;47.324;8.548;2023-04-30T03:36:01;11.38;;;9.70;;
32810;SDS011;65470;47.324;8.548;2023-04-30T03:38:27;12.70;;;10.50;;
32810;SDS011;65470;47.324;8.548;2023-04-30T03:40:53;13.10;;;10.35;;
32810;SDS011;65470;47.324;8.548;2023-04-30T03:43:18;11.68;;;9.75;;
32810;SDS011;65470;47.324;8.548;2023-04-30T03:45:44;11.55;;;10.35;;
32810;SDS011;65470;47.324;8.548;2023-04-30T03:48:10;11.35;;;10.18;;
32810;SDS011;65470;47.324;8.548;2023-04-30T03:50:36;11.40;;;10.07;;
32810;SDS011;65470;47.324;8.548;2023-04-30T03:53:01;10.82;;;9.73;;
32810;SDS011;65470;47.324;8.548;2023-04-30T03:55:27;11.77;;;10.57;;
32810;SDS011;65470;47.324;8.548;2023-04-30T03:57:53;12.25;;;11.02;;
32810;SDS011;65470;47.324;8.548;2023-04-30T04:00:18;12.75;;;10.45;;
32810;SDS011;65470;47.324;8.548;2023-04-30T04:02:44;12.52;;;10.95;;
32810;SDS011;65470;47.324;8.548;2023-04-30T04:05:10;13.27;;;11.88;;
32810;SDS011;65470;47.324;8.548;2023-04-30T04:07:36;12.95;;;9.98;;
32810;SDS011;65470;47.324;8.548;2023-04-30T04:10:01;12.07;;;10.88;;
32810;SDS011;65470;47.324;8.548;2023-04-30T04:12:27;12.05;;;10.55;;
32810;SDS011;65470;47.324;8.548;2023-04-30T04:14:53;12.38;;;11.07;;
32810;SDS011;65470;47.324;8.548;2023-04-30T04:17:18;14.07;;;10.95;;
32810;SDS011;65470;47.324;8.548;2023-04-30T04:19:44;12.48;;;11.20;;
32810;SDS011;65470;47.324;8.548;2023-04-30T04:22:09;11.90;;;10.60;;
32810;SDS011;65470;47.324;8.548;2023-04-30T04:24:35;12.05;;;10.75;;
32810;SDS011;65470;47.324;8.548;2023-04-30T04:27:02;12.35;;;11.07;;
32810;SDS011;65470;47.324;8.548;2023-04-30T04:29:27;15.13;;;12.45;;
32810;SDS011;65470;47.324;8.548;2023-04-30T04:31:54;14.07;;;11.02;;
32810;SDS011;65470;47.324;8.548;2023-04-30T04:34:20;14.13;;;12.15;;
32810;SDS011;65470;47.324;8.548;2023-04-30T04:36:46;11.98;;;10.68;;
32810;SDS011;65470;47.324;8.548;2023-04-30T04:39:11;12.65;;;11.15;;
32810;SDS011;65470;47.324;8.548;2023-04-30T04:41:37;12.45;;;11.15;;
32810;SDS011;65470;47.324;8.548;2023-04-30T04:44:03;12.07;;;10.63;;
32810;SDS011;65470;47.324;8.548;2023-04-30T04:46:29;14.73;;;11.73;;
32810;SDS011;65470;47.324;8.548;2023-04-30T04:48:56;17.98;;;11.32;;
32810;SDS011;65470;47.324;8.548;2023-04-30T04:51:22;12.82;;;11.43;;
32810;SDS011;65470;47.324;8.548;2023-04-30T04:53:48;15.00;;;11.70;;
32810;SDS011;65470;47.324;8.548;2023-04-30T04:56:13;12.05;;;10.80;;
32810;SDS011;65470;47.324;8.548;2023-04-30T04:58:40;12.30;;;11.07;;
32810;SDS011;65470;47.324;8.548;2023-04-30T05:01:06;13.27;;;11.20;;
32810;SDS011;65470;47.324;8.548;2023-04-30T05:03:32;12.38;;;10.65;;
32810;SDS011;65470;47.324;8.548;2023-04-30T05:06:00;12.65;;;11.35;;
32810;SDS011;65470;47.324;8.548;2023-04-30T05:08:26;12.52;;;10.27;;
32810;SDS011;65470;47.324;8.548;2023-04-30T05:10:52;16.20;;;11.75;;
32810;SDS011;65470;47.324;8.548;2023-04-30T05:13:18;13.45;;;11.48;;
32810;SDS011;65470;47.324;8.548;2023-04-30T05:15:43;12.07;;;10.77;;
32810;SDS011;65470;47.324;8.548;2023-04-30T05:18:09;13.85;;;11.63;;
32810;SDS011;65470;47.324;8.548;2023-04-30T05:20:34;13.23;;;11.52;;
32810;SDS011;65470;47.324;8.548;2023-04-30T05:23:00;11.52;;;10.10;;
32810;SDS011;65470;47.324;8.548;2023-04-30T05:25:26;11.95;;;9.70;;
32810;SDS011;65470;47.324;8.548;2023-04-30T05:27:51;12.23;;;10.23;;
32810;SDS011;65470;47.324;8.548;2023-04-30T05:30:17;13.43;;;10.57;;
32810;SDS011;65470;47.324;8.548;2023-04-30T05:32:43;11.25;;;10.15;;
32810;SDS011;65470;47.324;8.548;2023-04-30T05:35:14;13.48;;;10.50;;
32810;SDS011;65470;47.324;8.548;2023-04-30T05:37:43;12.60;;;11.27;;
32810;SDS011;65470;47.324;8.548;2023-04-30T05:40:09;12.40;;;10.30;;
32810;SDS011;65470;47.324;8.548;2023-04-30T05:42:36;12.90;;;11.25;;
32810;SDS011;65470;47.324;8.548;2023-04-30T05:45:02;12.10;;;10.73;;
32810;SDS011;65470;47.324;8.548;2023-04-30T05:47:28;15.20;;;11.40;;
32810;SDS011;65470;47.324;8.548;2023-04-30T05:49:54;13.35;;;11.73;;
32810;SDS011;65470;47.324;8.548;2023-04-30T05:52:20;12.82;;;11.43;;
32810;SDS011;65470;47.324;8.548;2023-04-30T05:54:45;14.45;;;11.93;;
32810;SDS011;65470;47.324;8.548;2023-04-30T05:57:12;13.10;;;11.18;;
32810;SDS011;65470;47.324;8.548;2023-04-30T05:59:37;15.63;;;12.32;;
32810;SDS011;65470;47.324;8.548;2023-04-30T06:02:03;14.13;;;11.60;;
32810;SDS011;65470;47.324;8.548;2023-04-30T06:04:29;19.30;;;11.52;;
32810;SDS011;65470;47.324;8.548;2023-04-30T06:06:55;12.70;;;11.30;;
32810;SDS011;65470;47.324;8.548;2023-04-30T06:09:21;14.35;;;11.13;;
32810;SDS011;65470;47.324;8.548;2023-04-30T06:11:46;13.10;;;11.05;;
32810;SDS011;65470;47.324;8.548;2023-04-30T06:14:14;12.75;;;10.27;;
32810;SDS011;65470;47.324;8.548;2023-04-30T06:16:41;13.10;;;11.80;;
32810;SDS011;65470;47.324;8.548;2023-04-30T06:19:08;12.38;;;11.07;;
32810;SDS011;65470;47.324;8.548;2023-04-30T06:21:33;13.32;;;11.07;;
32810;SDS011;65470;47.324;8.548;2023-04-30T06:23:59;13.10;;;11.07;;
32810;SDS011;65470;47.324;8.548;2023-04-30T06:26:25;12.55;;;10.77;;
32810;SDS011;65470;47.324;8.548;2023-04-30T06:28:51;13.27;;;11.65;;
32810;SDS011;65470;47.324;8.548;2023-04-30T06:31:17;13.82;;;10.73;;
32810;SDS011;65470;47.324;8.548;2023-04-30T06:33:42;11.13;;;9.93;;
32810;SDS011;65470;47.324;8.548;2023-04-30T06:36:08;10.95;;;9.82;;
32810;SDS011;65470;47.324;8.548;2023-04-30T06:38:33;12.15;;;10.55;;
32810;SDS011;65470;47.324;8.548;2023-04-30T06:40:59;11.48;;;10.18;;
32810;SDS011;65470;47.324;8.548;2023-04-30T06:43:25;11.43;;;10.30;;
32810;SDS011;65470;47.324;8.548;2023-04-30T06:45:50;11.80;;;10.63;;
32810;SDS011;65470;47.324;8.548;2023-04-30T06:48:16;12.55;;;10.30;;
32810;SDS011;65470;47.324;8.548;2023-04-30T06:50:41;12.13;;;10.38;;
32810;SDS011;65470;47.324;8.548;2023-04-30T06:53:10;13.68;;;9.98;;
32810;SDS011;65470;47.324;8.548;2023-04-30T06:55:36;10.48;;;9.45;;
32810;SDS011;65470;47.324;8.548;2023-04-30T06:58:02;14.60;;;10.48;;
32810;SDS011;65470;47.324;8.548;2023-04-30T07:00:29;11.57;;;10.48;;
32810;SDS011;65470;47.324;8.548;2023-04-30T07:02:55;12.55;;;10.20;;
32810;SDS011;65470;47.324;8.548;2023-04-30T07:05:24;11.23;;;9.80;;
32810;SDS011;65470;47.324;8.548;2023-04-30T07:07:50;11.27;;;10.07;;
32810;SDS011;65470;47.324;8.548;2023-04-30T07:10:16;10.38;;;9.38;;
32810;SDS011;65470;47.324;8.548;2023-04-30T07:12:42;11.90;;;10.75;;
32810;SDS011;65470;47.324;8.548;2023-04-30T07:15:08;12.40;;;9.85;;
32810;SDS011;65470;47.324;8.548;2023-04-30T07:17:34;10.98;;;9.85;;
32810;SDS011;65470;47.324;8.548;2023-04-30T07:20:01;10.35;;;9.35;;
32810;SDS011;65470;47.324;8.548;2023-04-30T07:22:28;11.45;;;10.27;;
32810;SDS011;65470;47.324;8.548;2023-04-30T07:24:55;11.43;;;10.07;;
32810;SDS011;65470;47.324;8.548;2023-04-30T07:27:21;11.00;;;9.30;;
32810;SDS011;65470;47.324;8.548;2023-04-30T07:29:46;10.52;;;9.52;;
32810;SDS011;65470;47.324;8.548;2023-04-30T07:32:12;9.73;;;8.77;;
32810;SDS011;65470;47.324;8.548;2023-04-30T07:34:38;11.05;;;9.90;;
32810;SDS011;65470;47.324;8.548;2023-04-30T07:37:04;11.88;;;10.68;;
32810;SDS011;65470;47.324;8.548;2023-04-30T07:39:30;11.15;;;9.73;;
32810;SDS011;65470;47.324;8.548;2023-04-30T07:41:55;10.75;;;9.65;;
32810;SDS011;65470;47.324;8.548;2023-04-30T07:44:21;17.10;;;12.60;;
32810;SDS011;65470;47.324;8.548;2023-04-30T07:46:46;14.50;;;11.98;;
32810;SDS011;65470;47.324;8.548;2023-04-30T07:49:12;10.63;;;9.52;;
32810;SDS011;65470;47.324;8.548;2023-04-30T07:51:38;11.13;;;9.95;;
32810;SDS011;65470;47.324;8.548;2023-04-30T07:54:03;10.57;;;9.57;;
32810;SDS011;65470;47.324;8.548;2023-04-30T07:56:29;10.80;;;9.27;;
32810;SDS011;65470;47.324;8.548;2023-04-30T07:58:54;13.43;;;10.00;;
32810;SDS011;65470;47.324;8.548;2023-04-30T08:01:20;9.60;;;8.65;;
32810;SDS011;65470;47.324;8.548;2023-04-30T08:03:46;10.00;;;9.00;;
32810;SDS011;65470;47.324;8.548;2023-04-30T08:06:11;10.07;;;9.07;;
32810;SDS011;65470;47.324;8.548;2023-04-30T08:08:37;9.15;;;8.25;;
32810;SDS011;65470;47.324;8.548;2023-04-30T08:11:03;9.30;;;8.45;;
32810;SDS011;65470;47.324;8.548;2023-04-30T08:13:29;9.23;;;8.15;;
32810;SDS011;65470;47.324;8.548;2023-04-30T08:15:55;10.15;;;8.43;;
32810;SDS011;65470;47.324;8.548;2023-04-30T08:18:20;8.73;;;7.82;;
32810;SDS011;65470;47.324;8.548;2023-04-30T08:20:46;9.23;;;8.30;;
32810;SDS011;65470;47.324;8.548;2023-04-30T08:23:12;10.32;;;8.10;;
32810;SDS011;65470;47.324;8.548;2023-04-30T08:25:38;7.85;;;7.05;;
32810;SDS011;65470;47.324;8.548;2023-04-30T08:28:05;7.63;;;6.93;;
32810;SDS011;65470;47.324;8.548;2023-04-30T08:30:30;6.93;;;6.22;;
32810;SDS011;65470;47.324;8.548;2023-04-30T08:32:57;7.22;;;6.53;;
32810;SDS011;65470;47.324;8.548;2023-04-30T08:35:23;6.25;;;5.75;;
32810;SDS011;65470;47.324;8.548;2023-04-30T08:37:48;9.18;;;6.18;;
32810;SDS011;65470;47.324;8.548;2023-04-30T08:40:14;11.10;;;6.07;;
32810;SDS011;65470;47.324;8.548;2023-04-30T08:42:42;6.28;;;5.78;;
32810;SDS011;65470;47.324;8.548;2023-04-30T08:45:10;6.85;;;6.18;;
32810;SDS011;65470;47.324;8.548;2023-04-30T08:47:37;6.45;;;5.95;;
32810;SDS011;65470;47.324;8.548;2023-04-30T08:50:06;6.57;;;5.97;;
32810;SDS011;65470;47.324;8.548;2023-04-30T08:52:33;6.70;;;6.10;;
32810;SDS011;65470;47.324;8.548;2023-04-30T08:55:00;6.75;;;5.95;;
32810;SDS011;65470;47.324;8.548;2023-04-30T08:57:26;7.75;;;6.00;;
32810;SDS011;65470;47.324;8.548;2023-04-30T08:59:52;5.95;;;5.45;;
32810;SDS011;65470;47.324;8.548;2023-04-30T09:02:18;6.30;;;5.70;;
32810;SDS011;65470;47.324;8.548;2023-04-30T09:04:44;6.25;;;5.65;;
32810;SDS011;65470;47.324;8.548;2023-04-30T09:07:11;5.47;;;5.00;;
32810;SDS011;65470;47.324;8.548;2023-04-30T09:09:38;5.68;;;5.18;;
32810;SDS011;65470;47.324;8.548;2023-04-30T09:12:22;5.70;;;5.30;;
32810;SDS011;65470;47.324;8.548;2023-04-30T09:15:01;5.90;;;5.40;;
32810;SDS011;65470;47.324;8.548;2023-04-30T09:17:30;6.30;;;5.78;;
32810;SDS011;65470;47.324;8.548;2023-04-30T09:20:12;5.78;;;5.28;;
32810;SDS011;65470;47.324;8.548;2023-04-30T09:22:39;7.18;;;5.68;;
32810;SDS011;65470;47.324;8.548;2023-04-30T09:25:06;6.05;;;5.55;;
32810;SDS011;65470;47.324;8.548;2023-04-30T09:27:33;6.03;;;5.45;;
32810;SDS011;65470;47.324;8.548;2023-04-30T09:29:59;7.65;;;5.22;;
32810;SDS011;65470;47.324;8.548;2023-04-30T09:32:24;5.90;;;5.40;;
32810;SDS011;65470;47.324;8.548;2023-04-30T09:34:50;7.57;;;5.97;;
32810;SDS011;65470;47.324;8.548;2023-04-30T09:37:16;7.70;;;5.53;;
32810;SDS011;65470;47.324;8.548;2023-04-30T09:39:48;8.27;;;5.72;;
32810;SDS011;65470;47.324;8.548;2023-04-30T09:42:15;5.60;;;5.07;;
32810;SDS011;65470;47.324;8.548;2023-04-30T09:44:42;5.65;;;5.15;;
32810;SDS011;65470;47.324;8.548;2023-04-30T09:47:14;5.95;;;5.40;;
32810;SDS011;65470;47.324;8.548;2023-04-30T09:49:50;5.75;;;5.25;;
32810;SDS011;65470;47.324;8.548;2023-04-30T09:52:16;5.60;;;4.90;;
32810;SDS011;65470;47.324;8.548;2023-04-30T09:54:43;7.00;;;5.18;;
32810;SDS011;65470;47.324;8.548;2023-04-30T09:57:10;7.53;;;5.20;;
32810;SDS011;65470;47.324;8.548;2023-04-30T09:59:37;6.88;;;6.28;;
32810;SDS011;65470;47.324;8.548;2023-04-30T10:02:06;5.68;;;5.18;;
32810;SDS011;65470;47.324;8.548;2023-04-30T10:04:37;5.53;;;5.03;;
32810;SDS011;65470;47.324;8.548;2023-04-30T10:07:08;5.35;;;4.95;;
32810;SDS011;65470;47.324;8.548;2023-04-30T10:09:58;5.40;;;5.00;;
32810;SDS011;65470;47.324;8.548;2023-04-30T10:12:38;5.53;;;5.03;;
32810;SDS011;65470;47.324;8.548;2023-04-30T10:15:10;6.00;;;5.18;;
32810;SDS011;65470;47.324;8.548;2023-04-30T10:17:40;5.20;;;4.70;;
32810;SDS011;65470;47.324;8.548;2023-04-30T10:20:11;5.35;;;4.22;;
32810;SDS011;65470;47.324;8.548;2023-04-30T10:22:37;5.43;;;4.93;;
32810;SDS011;65470;47.324;8.548;2023-04-30T10:25:05;8.13;;;5.38;;
32810;SDS011;65470;47.324;8.548;2023-04-30T10:27:35;5.72;;;5.18;;
32810;SDS011;65470;47.324;8.548;2023-04-30T10:30:00;4.90;;;4.50;;
32810;SDS011;65470;47.324;8.548;2023-04-30T10:32:29;5.03;;;4.63;;
32810;SDS011;65470;47.324;8.548;2023-04-30T10:37:45;5.03;;;4.63;;
32810;SDS011;65470;47.324;8.548;2023-04-30T10:40:14;5.03;;;4.30;;
32810;SDS011;65470;47.324;8.548;2023-04-30T10:42:47;5.28;;;4.78;;
32810;SDS011;65470;47.324;8.548;2023-04-30T10:45:16;5.20;;;4.68;;
32810;SDS011;65470;47.324;8.548;2023-04-30T10:47:42;4.53;;;4.18;;
32810;SDS011;65470;47.324;8.548;2023-04-30T10:50:11;4.43;;;4.07;;
32810;SDS011;65470;47.324;8.548;2023-04-30T10:52:37;7.47;;;4.50;;
32810;SDS011;65470;47.324;8.548;2023-04-30T10:55:06;3.70;;;3.38;;
32810;SDS011;65470;47.324;8.548;2023-04-30T10:57:39;4.68;;;4.15;;
32810;SDS011;65470;47.324;8.548;2023-04-30T11:02:38;3.88;;;3.50;;
32810;SDS011;65470;47.324;8.548;2023-04-30T11:05:12;4.00;;;3.70;;
32810;SDS011;65470;47.324;8.548;2023-04-30T11:07:55;4.47;;;3.97;;
32810;SDS011;65470;47.324;8.548;2023-04-30T11:10:23;4.53;;;3.72;;
32810;SDS011;65470;47.324;8.548;2023-04-30T11:12:51;3.63;;;3.33;;
32810;SDS011;65470;47.324;8.548;2023-04-30T11:15:19;3.58;;;3.30;;
32810;SDS011;65470;47.324;8.548;2023-04-30T11:17:51;4.50;;;4.07;;
32810;SDS011;65470;47.324;8.548;2023-04-30T11:20:22;3.58;;;3.28;;
32810;SDS011;65470;47.324;8.548;2023-04-30T11:25:44;3.80;;;3.47;;
32810;SDS011;65470;47.324;8.548;2023-04-30T11:28:16;4.18;;;3.05;;
32810;SDS011;65470;47.324;8.548;2023-04-30T11:33:18;3.92;;;3.55;;
32810;SDS011;65470;47.324;8.548;2023-04-30T11:35:44;4.05;;;3.40;;
32810;SDS011;65470;47.324;8.548;2023-04-30T11:38:13;4.38;;;3.60;;
32810;SDS011;65470;47.324;8.548;2023-04-30T11:40:41;5.53;;;3.45;;
32810;SDS011;65470;47.324;8.548;2023-04-30T11:43:19;4.40;;;4.00;;
32810;SDS011;65470;47.324;8.548;2023-04-30T11:48:33;3.58;;;3.28;;
32810;SDS011;65470;47.324;8.548;2023-04-30T11:53:38;4.22;;;3.92;;
32810;SDS011;65470;47.324;8.548;2023-04-30T11:56:04;5.22;;;4.47;;
32810;SDS011;65470;47.324;8.548;2023-04-30T11:58:36;6.22;;;3.78;;
32810;SDS011;65470;47.324;8.548;2023-04-30T12:01:03;4.00;;;3.70;;
32810;SDS011;65470;47.324;8.548;2023-04-30T12:03:32;4.32;;;3.95;;
32810;SDS011;65470;47.324;8.548;2023-04-30T12:06:04;4.28;;;3.72;;
32810;SDS011;65470;47.324;8.548;2023-04-30T12:08:29;3.10;;;2.90;;
32810;SDS011;65470;47.324;8.548;2023-04-30T12:10:55;3.63;;;3.33;;
32810;SDS011;65470;47.324;8.548;2023-04-30T12:13:20;4.45;;;3.20;;
32810;SDS011;65470;47.324;8.548;2023-04-30T12:16:07;6.35;;;3.00;;
32810;SDS011;65470;47.324;8.548;2023-04-30T12:18:32;4.38;;;3.00;;
32810;SDS011;65470;47.324;8.548;2023-04-30T12:20:57;3.20;;;2.90;;
32810;SDS011;65470;47.324;8.548;2023-04-30T12:23:23;3.00;;;2.80;;
32810;SDS011;65470;47.324;8.548;2023-04-30T12:25:49;4.90;;;3.08;;
32810;SDS011;65470;47.324;8.548;2023-04-30T12:28:14;3.20;;;2.58;;
32810;SDS011;65470;47.324;8.548;2023-04-30T12:30:40;4.30;;;2.88;;
32810;SDS011;65470;47.324;8.548;2023-04-30T12:33:08;2.75;;;2.55;;
32810;SDS011;65470;47.324;8.548;2023-04-30T12:35:35;3.42;;;3.13;;
32810;SDS011;65470;47.324;8.548;2023-04-30T12:38:04;3.20;;;2.90;;
32810;SDS011;65470;47.324;8.548;2023-04-30T12:40:31;3.47;;;3.17;;
32810;SDS011;65470;47.324;8.548;2023-04-30T12:48:18;2.90;;;2.63;;
32810;SDS011;65470;47.324;8.548;2023-04-30T12:50:58;4.78;;;2.63;;
32810;SDS011;65470;47.324;8.548;2023-04-30T12:53:25;3.40;;;2.75;;
32810;SDS011;65470;47.324;8.548;2023-04-30T12:58:32;4.82;;;2.65;;
32810;SDS011;65470;47.324;8.548;2023-04-30T13:00:57;3.20;;;2.72;;
32810;SDS011;65470;47.324;8.548;2023-04-30T13:03:23;2.65;;;2.45;;
32810;SDS011;65470;47.324;8.548;2023-04-30T13:05:50;4.18;;;2.60;;
32810;SDS011;65470;47.324;8.548;2023-04-30T13:08:16;3.00;;;2.80;;
32810;SDS011;65470;47.324;8.548;2023-04-30T13:10:46;2.63;;;2.42;;
32810;SDS011;65470;47.324;8.548;2023-04-30T13:13:13;3.13;;;2.70;;
32810;SDS011;65470;47.324;8.548;2023-04-30T13:15:43;3.15;;;2.67;;
32810;SDS011;65470;47.324;8.548;2023-04-30T13:18:09;3.10;;;2.80;;
32810;SDS011;65470;47.324;8.548;2023-04-30T13:20:37;3.22;;;2.92;;
32810;SDS011;65470;47.324;8.548;2023-04-30T13:23:04;3.05;;;2.75;;
32810;SDS011;65470;47.324;8.548;2023-04-30T13:25:31;3.20;;;2.80;;
32810;SDS011;65470;47.324;8.548;2023-04-30T13:27:57;3.85;;;2.75;;
32810;SDS011;65470;47.324;8.548;2023-04-30T13:30:23;3.33;;;2.72;;
32810;SDS011;65470;47.324;8.548;2023-04-30T13:32:49;5.00;;;2.75;;
32810;SDS011;65470;47.324;8.548;2023-04-30T13:35:16;4.05;;;3.30;;
32810;SDS011;65470;47.324;8.548;2023-04-30T13:37:42;5.65;;;3.03;;
32810;SDS011;65470;47.324;8.548;2023-04-30T13:40:08;3.15;;;2.90;;
32810;SDS011;65470;47.324;8.548;2023-04-30T13:42:37;3.50;;;2.92;;
32810;SDS011;65470;47.324;8.548;2023-04-30T13:45:04;3.17;;;2.88;;
32810;SDS011;65470;47.324;8.548;2023-04-30T13:47:30;3.28;;;3.03;;
32810;SDS011;65470;47.324;8.548;2023-04-30T13:49:56;3.30;;;3.00;;
32810;SDS011;65470;47.324;8.548;2023-04-30T13:52:22;3.17;;;2.70;;
32810;SDS011;65470;47.324;8.548;2023-04-30T13:54:47;3.53;;;3.08;;
32810;SDS011;65470;47.324;8.548;2023-04-30T13:57:13;3.42;;;3.13;;
32810;SDS011;65470;47.324;8.548;2023-04-30T13:59:39;3.45;;;3.13;;
32810;SDS011;65470;47.324;8.548;2023-04-30T14:02:05;3.88;;;2.92;;
32810;SDS011;65470;47.324;8.548;2023-04-30T14:04:31;3.30;;;2.67;;
32810;SDS011;65470;47.324;8.548;2023-04-30T14:06:56;3.10;;;2.88;;
32810;SDS011;65470;47.324;8.548;2023-04-30T14:09:22;4.05;;;2.80;;
32810;SDS011;65470;47.324;8.548;2023-04-30T14:11:48;3.47;;;3.17;;
32810;SDS011;65470;47.324;8.548;2023-04-30T14:14:13;3.05;;;2.85;;
32810;SDS011;65470;47.324;8.548;2023-04-30T14:16:39;3.55;;;3.22;;
32810;SDS011;65470;47.324;8.548;2023-04-30T14:19:06;3.35;;;2.72;;
32810;SDS011;65470;47.324;8.548;2023-04-30T14:21:31;4.57;;;3.10;;
32810;SDS011;65470;47.324;8.548;2023-04-30T14:23:57;2.80;;;2.60;;
32810;SDS011;65470;47.324;8.548;2023-04-30T14:26:23;5.15;;;2.88;;
32810;SDS011;65470;47.324;8.548;2023-04-30T14:28:48;3.47;;;2.83;;
32810;SDS011;65470;47.324;8.548;2023-04-30T14:31:14;4.68;;;3.13;;
32810;SDS011;65470;47.324;8.548;2023-04-30T14:33:40;2.75;;;2.55;;
32810;SDS011;65470;47.324;8.548;2023-04-30T14:36:05;3.30;;;3.08;;
32810;SDS011;65470;47.324;8.548;2023-04-30T14:38:32;2.90;;;2.70;;
32810;SDS011;65470;47.324;8.548;2023-04-30T14:40:57;2.85;;;2.65;;
32810;SDS011;65470;47.324;8.548;2023-04-30T14:43:23;4.50;;;2.95;;
32810;SDS011;65470;47.324;8.548;2023-04-30T14:45:49;2.80;;;2.60;;
32810;SDS011;65470;47.324;8.548;2023-04-30T14:48:15;3.65;;;3.05;;
32810;SDS011;65470;47.324;8.548;2023-04-30T14:50:42;2.63;;;2.42;;
32810;SDS011;65470;47.324;8.548;2023-04-30T14:53:08;3.45;;;3.05;;
32810;SDS011;65470;47.324;8.548;2023-04-30T14:55:35;4.60;;;2.63;;
32810;SDS011;65470;47.324;8.548;2023-04-30T14:58:01;7.93;;;3.10;;
32810;SDS011;65470;47.324;8.548;2023-04-30T15:00:27;3.35;;;2.88;;
32810;SDS011;65470;47.324;8.548;2023-04-30T15:02:53;3.33;;;2.80;;
32810;SDS011;65470;47.324;8.548;2023-04-30T15:05:19;3.10;;;2.80;;
32810;SDS011;65470;47.324;8.548;2023-04-30T15:07:45;4.47;;;2.50;;
32810;SDS011;65470;47.324;8.548;2023-04-30T15:10:11;3.70;;;3.05;;
32810;SDS011;65470;47.324;8.548;2023-04-30T15:12:36;3.15;;;2.65;;
32810;SDS011;65470;47.324;8.548;2023-04-30T15:15:03;5.03;;;3.05;;
32810;SDS011;65470;47.324;8.548;2023-04-30T15:17:29;3.17;;;2.88;;
32810;SDS011;65470;47.324;8.548;2023-04-30T15:19:58;4.20;;;2.60;;
32810;SDS011;65470;47.324;8.548;2023-04-30T15:22:26;3.13;;;2.83;;
32810;SDS011;65470;47.324;8.548;2023-04-30T15:24:51;3.97;;;3.42;;
32810;SDS011;65470;47.324;8.548;2023-04-30T15:27:17;4.28;;;3.88;;